createdAt,value
2018-10-16T00:00:43.123Z,995.76
2018-10-16T00:01:43.160Z,995.78
2018-10-16T00:02:43.200Z,995.74
2018-10-16T00:03:43.238Z,995.78
2018-10-16T00:04:43.281Z,995.74
2018-10-16T00:05:43.315Z,995.73
2018-10-16T00:06:43.355Z,995.70
2018-10-16T00:07:43.393Z,995.76
2018-10-16T00:08:43.444Z,995.72
2018-10-16T00:09:43.477Z,995.72
2018-10-16T00:10:43.511Z,995.73
2018-10-16T00:11:43.551Z,995.77
2018-10-16T00:12:43.589Z,995.74
2018-10-16T00:13:43.627Z,995.78
2018-10-16T00:14:43.665Z,995.75
2018-10-16T00:15:43.707Z,995.78
2018-10-16T00:16:43.743Z,995.77
2018-10-16T00:17:43.788Z,995.79
2018-10-16T00:18:43.824Z,995.73
2018-10-16T00:19:43.866Z,995.81
2018-10-16T00:20:43.899Z,995.82
2018-10-16T00:21:43.939Z,995.81
2018-10-16T00:22:43.977Z,995.79
2018-10-16T00:23:44.015Z,995.79
2018-10-16T00:24:44.053Z,995.80
2018-10-16T00:25:44.093Z,995.81
2018-10-16T00:26:44.132Z,995.86
2018-10-16T00:27:44.170Z,995.81
2018-10-16T00:28:44.210Z,995.82
2018-10-16T00:29:44.247Z,995.82
2018-10-16T00:30:44.286Z,995.84
2018-10-16T00:31:44.325Z,995.81
2018-10-16T00:32:44.493Z,995.82
2018-10-16T00:33:44.401Z,995.88
2018-10-16T00:34:44.440Z,995.86
2018-10-16T00:35:44.479Z,995.85
2018-10-16T00:36:44.519Z,995.88
2018-10-16T00:37:44.561Z,995.88
2018-10-16T00:38:44.597Z,995.87
2018-10-16T00:39:44.634Z,995.87
2018-10-16T00:40:44.675Z,995.91
2018-10-16T00:41:44.711Z,995.90
2018-10-16T00:42:44.749Z,995.91
2018-10-16T00:43:44.856Z,995.95
2018-10-16T00:44:44.828Z,995.98
2018-10-16T00:45:44.870Z,995.96
2018-10-16T00:46:44.906Z,996.00
2018-10-16T00:47:44.943Z,995.96
2018-10-16T00:48:44.989Z,996.01
2018-10-16T00:49:45.021Z,996.01
2018-10-16T00:50:45.060Z,995.98
2018-10-16T00:51:45.105Z,996.03
2018-10-16T00:52:45.137Z,996.03
2018-10-16T00:53:45.176Z,995.98
2018-10-16T00:54:45.261Z,995.95
2018-10-16T00:55:45.252Z,995.98
2018-10-16T00:56:45.293Z,995.97
2018-10-16T00:57:45.389Z,996.01
2018-10-16T00:58:45.369Z,996.02
2018-10-16T00:59:45.409Z,995.98
2018-10-16T01:00:45.447Z,996.00
2018-10-16T01:01:45.484Z,995.98
2018-10-16T01:02:45.525Z,996.04
2018-10-16T01:03:45.572Z,996.04
2018-10-16T01:04:45.602Z,996.05
2018-10-16T01:05:45.645Z,996.06
2018-10-16T01:06:45.681Z,996.09
2018-10-16T01:07:45.722Z,996.07
2018-10-16T01:08:45.761Z,996.08
2018-10-16T01:09:45.795Z,996.09
2018-10-16T01:10:45.836Z,996.12
2018-10-16T01:11:45.874Z,996.12
2018-10-16T01:12:45.913Z,996.13
2018-10-16T01:13:45.960Z,996.14
2018-10-16T01:14:45.996Z,996.16
2018-10-16T01:15:46.028Z,996.15
2018-10-16T01:16:46.067Z,996.19
2018-10-16T01:17:46.104Z,996.16
2018-10-16T01:18:46.144Z,996.19
2018-10-16T01:19:46.217Z,996.18
2018-10-16T01:20:46.225Z,996.16
2018-10-16T01:21:46.261Z,996.17
2018-10-16T01:22:46.299Z,996.17
2018-10-16T01:23:46.337Z,996.18
2018-10-16T01:24:46.376Z,996.17
2018-10-16T01:25:46.414Z,996.21
2018-10-16T01:26:46.452Z,996.21
2018-10-16T01:27:46.491Z,996.22
2018-10-16T01:28:46.530Z,996.25
2018-10-16T01:29:46.568Z,996.24
2018-10-16T01:30:46.610Z,996.25
2018-10-16T01:31:46.645Z,996.23
2018-10-16T01:32:46.684Z,996.26
2018-10-16T01:33:46.722Z,996.24
2018-10-16T01:34:46.761Z,996.23
2018-10-16T01:35:46.801Z,996.24
2018-10-16T01:36:46.839Z,996.19
2018-10-16T01:37:46.877Z,996.23
2018-10-16T01:38:46.918Z,996.17
2018-10-16T01:39:46.955Z,996.21
2018-10-16T01:40:46.994Z,996.18
2018-10-16T01:41:47.037Z,996.18
2018-10-16T01:42:47.074Z,996.13
2018-10-16T01:43:47.110Z,996.14
2018-10-16T01:44:47.148Z,996.14
2018-10-16T01:45:47.187Z,996.15
2018-10-16T01:46:47.224Z,996.13
2018-10-16T01:47:47.263Z,996.12
2018-10-16T01:48:47.304Z,996.13
2018-10-16T01:49:47.348Z,996.12
2018-10-16T01:50:47.377Z,996.11
2018-10-16T01:51:47.423Z,996.07
2018-10-16T01:52:47.456Z,996.11
2018-10-16T01:53:47.493Z,996.09
2018-10-16T01:54:47.534Z,996.09
2018-10-16T01:55:47.571Z,996.10
2018-10-16T01:56:47.609Z,996.06
2018-10-16T01:57:47.664Z,996.09
2018-10-16T01:58:47.687Z,996.07
2018-10-16T01:59:47.728Z,996.08
2018-10-16T02:00:47.764Z,996.04
2018-10-16T02:01:47.803Z,996.05
2018-10-16T02:02:47.842Z,996.02
2018-10-16T02:03:47.883Z,996.04
2018-10-16T02:04:47.918Z,995.99
2018-10-16T02:05:47.956Z,995.99
2018-10-16T02:06:47.997Z,996.02
2018-10-16T02:07:48.035Z,996.03
2018-10-16T02:08:48.073Z,996.01
2018-10-16T02:09:48.113Z,996.02
2018-10-16T02:10:48.153Z,996.05
2018-10-16T02:11:48.198Z,996.05
2018-10-16T02:12:48.226Z,996.08
2018-10-16T02:13:48.266Z,996.07
2018-10-16T02:14:48.400Z,996.05
2018-10-16T02:15:48.342Z,996.03
2018-10-16T02:16:48.382Z,996.04
2018-10-16T02:17:48.425Z,996.06
2018-10-16T02:18:48.471Z,996.06
2018-10-16T02:19:48.496Z,996.09
2018-10-16T02:20:48.535Z,996.10
2018-10-16T02:21:48.583Z,996.10
2018-10-16T02:22:48.610Z,996.12
2018-10-16T02:23:48.650Z,996.14
2018-10-16T02:24:48.688Z,996.17
2018-10-16T02:25:48.726Z,996.20
2018-10-16T02:26:48.764Z,996.15
2018-10-16T02:27:48.813Z,996.18
2018-10-16T02:28:48.841Z,996.15
2018-10-16T02:29:48.880Z,996.14
2018-10-16T02:30:48.919Z,996.13
2018-10-16T02:31:48.959Z,996.15
2018-10-16T02:32:49.007Z,996.17
2018-10-16T02:33:49.036Z,996.14
2018-10-16T02:34:49.072Z,996.18
2018-10-16T02:35:49.115Z,996.16
2018-10-16T02:36:49.155Z,996.16
2018-10-16T02:37:49.200Z,996.18
2018-10-16T02:38:49.227Z,996.18
2018-10-16T02:39:49.280Z,996.18
2018-10-16T02:40:49.309Z,996.19
2018-10-16T02:41:49.341Z,996.17
2018-10-16T02:42:49.393Z,996.18
2018-10-16T02:43:49.430Z,996.20
2018-10-16T02:44:49.464Z,996.15
2018-10-16T02:45:49.498Z,996.15
2018-10-16T02:46:49.538Z,996.17
2018-10-16T02:47:49.574Z,996.20
2018-10-16T02:48:49.614Z,996.18
2018-10-16T02:49:49.649Z,996.20
2018-10-16T02:50:49.691Z,996.21
2018-10-16T02:51:49.727Z,996.19
2018-10-16T02:52:49.765Z,996.18
2018-10-16T02:53:49.802Z,996.20
2018-10-16T02:54:49.842Z,996.21
2018-10-16T02:55:49.880Z,996.25
2018-10-16T02:56:49.918Z,996.22
2018-10-16T02:57:49.956Z,996.26
2018-10-16T02:58:49.994Z,996.25
2018-10-16T02:59:50.035Z,996.23
2018-10-16T03:00:50.087Z,996.19
2018-10-16T03:01:50.112Z,996.21
2018-10-16T03:02:50.147Z,996.22
2018-10-16T03:03:50.186Z,996.26
2018-10-16T03:04:50.238Z,996.26
2018-10-16T03:05:50.266Z,996.27
2018-10-16T03:06:50.305Z,996.30
2018-10-16T03:07:50.342Z,996.29
2018-10-16T03:08:50.388Z,996.33
2018-10-16T03:09:50.417Z,996.23
2018-10-16T03:10:50.456Z,996.32
2018-10-16T03:11:50.493Z,996.24
2018-10-16T03:12:50.534Z,996.25
2018-10-16T03:13:50.585Z,996.27
2018-10-16T03:14:50.697Z,996.29
2018-10-16T03:15:50.651Z,996.27
2018-10-16T03:16:50.687Z,996.28
2018-10-16T03:17:50.735Z,996.29
2018-10-16T03:18:50.762Z,996.32
2018-10-16T03:19:50.813Z,996.33
2018-10-16T03:20:50.840Z,996.33
2018-10-16T03:21:50.879Z,996.37
2018-10-16T03:22:50.916Z,996.38
2018-10-16T03:23:50.954Z,996.39
2018-10-16T03:24:51.002Z,996.38
2018-10-16T03:25:51.031Z,996.34
2018-10-16T03:26:51.073Z,996.36
2018-10-16T03:27:51.108Z,996.36
2018-10-16T03:28:51.146Z,996.41
2018-10-16T03:29:51.183Z,996.40
2018-10-16T03:30:51.221Z,996.41
2018-10-16T03:31:51.261Z,996.40
2018-10-16T03:32:51.299Z,996.38
2018-10-16T03:33:51.345Z,996.38
2018-10-16T03:34:51.379Z,996.40
2018-10-16T03:35:51.419Z,996.35
2018-10-16T03:36:51.452Z,996.39
2018-10-16T03:37:51.493Z,996.40
2018-10-16T03:38:51.530Z,996.39
2018-10-16T03:39:51.568Z,996.36
2018-10-16T03:40:51.605Z,996.38
2018-10-16T03:41:51.644Z,996.42
2018-10-16T03:42:51.684Z,996.41
2018-10-16T03:43:51.723Z,996.44
2018-10-16T03:44:51.778Z,996.42
2018-10-16T03:45:51.797Z,996.45
2018-10-16T03:46:51.836Z,996.46
2018-10-16T03:47:51.877Z,996.45
2018-10-16T03:48:51.912Z,996.43
2018-10-16T03:49:51.950Z,996.43
2018-10-16T03:50:51.989Z,996.46
2018-10-16T03:51:52.027Z,996.45
2018-10-16T03:52:52.067Z,996.49
2018-10-16T03:53:52.103Z,996.52
2018-10-16T03:54:52.142Z,996.53
2018-10-16T03:55:52.188Z,996.52
2018-10-16T03:56:52.223Z,996.53
2018-10-16T03:57:52.257Z,996.55
2018-10-16T03:58:52.295Z,996.56
2018-10-16T03:59:52.339Z,996.55
2018-10-16T04:00:52.371Z,996.56
2018-10-16T04:01:52.408Z,996.56
2018-10-16T04:02:52.448Z,996.61
2018-10-16T04:03:52.485Z,996.61
2018-10-16T04:04:52.524Z,996.62
2018-10-16T04:05:52.562Z,996.62
2018-10-16T04:06:52.746Z,996.63
2018-10-16T04:07:52.639Z,996.65
2018-10-16T04:08:52.678Z,996.62
2018-10-16T04:09:52.717Z,996.62
2018-10-16T04:10:52.755Z,996.60
2018-10-16T04:11:52.793Z,996.63
2018-10-16T04:12:52.932Z,996.62
2018-10-16T04:13:52.921Z,996.66
2018-10-16T04:14:52.908Z,996.66
2018-10-16T04:15:52.947Z,996.66
2018-10-16T04:16:52.984Z,996.65
2018-10-16T04:17:53.023Z,996.62
2018-10-16T04:18:53.062Z,996.66
2018-10-16T04:19:53.099Z,996.68
2018-10-16T04:20:53.139Z,996.72
2018-10-16T04:21:53.175Z,996.70
2018-10-16T04:22:53.263Z,996.68
2018-10-16T04:23:53.252Z,996.68
2018-10-16T04:24:53.289Z,996.74
2018-10-16T04:25:53.333Z,996.69
2018-10-16T04:26:53.367Z,996.74
2018-10-16T04:27:53.407Z,996.73
2018-10-16T04:28:53.443Z,996.72
2018-10-16T04:29:53.482Z,996.72
2018-10-16T04:30:53.519Z,996.74
2018-10-16T04:31:53.557Z,996.74
2018-10-16T04:32:53.597Z,996.73
2018-10-16T04:33:53.999Z,996.76
2018-10-16T04:34:53.673Z,996.73
2018-10-16T04:35:53.711Z,996.77
2018-10-16T04:36:53.755Z,996.74
2018-10-16T04:37:53.787Z,996.73
2018-10-16T04:38:53.829Z,996.71
2018-10-16T04:39:53.865Z,996.72
2018-10-16T04:40:53.904Z,996.71
2018-10-16T04:41:53.944Z,996.75
2018-10-16T04:42:54.004Z,996.76
2018-10-16T04:43:54.083Z,996.78
2018-10-16T04:44:54.074Z,996.74
2018-10-16T04:45:54.099Z,996.75
2018-10-16T04:46:54.162Z,996.78
2018-10-16T04:47:54.172Z,996.79
2018-10-16T04:48:54.211Z,996.81
2018-10-16T04:49:54.252Z,996.84
2018-10-16T04:50:54.295Z,996.82
2018-10-16T04:51:54.347Z,996.83
2018-10-16T04:52:54.367Z,996.77
2018-10-16T04:53:54.400Z,996.86
2018-10-16T04:54:54.443Z,996.84
2018-10-16T04:55:54.479Z,996.83
2018-10-16T04:56:54.530Z,996.81
2018-10-16T04:57:54.559Z,996.85
2018-10-16T04:58:54.599Z,996.85
2018-10-16T04:59:54.639Z,996.87
2018-10-16T05:00:54.671Z,996.92
2018-10-16T05:01:54.710Z,996.89
2018-10-16T05:02:54.746Z,996.85
2018-10-16T05:03:54.847Z,996.85
2018-10-16T05:04:54.824Z,996.85
2018-10-16T05:05:54.861Z,996.86
2018-10-16T05:06:54.909Z,996.89
2018-10-16T05:07:54.941Z,996.85
2018-10-16T05:08:54.996Z,996.84
2018-10-16T05:09:55.014Z,996.83
2018-10-16T05:10:55.060Z,996.84
2018-10-16T05:11:55.377Z,996.88
2018-10-16T05:12:55.133Z,996.84
2018-10-16T05:13:55.169Z,996.88
2018-10-16T05:14:55.207Z,996.85
2018-10-16T05:15:55.247Z,996.84
2018-10-16T05:16:55.328Z,996.88
2018-10-16T05:17:55.323Z,996.86
2018-10-16T05:18:55.393Z,996.86
2018-10-16T05:19:55.399Z,996.92
2018-10-16T05:20:55.439Z,996.92
2018-10-16T05:21:55.488Z,996.99
2018-10-16T05:22:55.516Z,996.99
2018-10-16T05:23:55.559Z,996.96
2018-10-16T05:24:55.593Z,997.02
2018-10-16T05:25:55.633Z,997.03
2018-10-16T05:26:55.671Z,997.09
2018-10-16T05:27:55.710Z,997.08
2018-10-16T05:28:55.748Z,997.05
2018-10-16T05:29:55.784Z,997.04
2018-10-16T05:30:55.938Z,997.08
2018-10-16T05:31:55.861Z,997.05
2018-10-16T05:32:55.903Z,997.03
2018-10-16T05:33:55.941Z,997.06
2018-10-16T05:34:55.975Z,997.11
2018-10-16T05:35:56.016Z,997.10
2018-10-16T05:36:56.058Z,997.13
2018-10-16T05:37:56.093Z,997.16
2018-10-16T05:38:56.140Z,997.17
2018-10-16T05:39:56.173Z,997.19
2018-10-16T05:40:56.216Z,997.19
2018-10-16T05:41:56.244Z,997.21
2018-10-16T05:42:56.283Z,997.21
2018-10-16T05:43:56.326Z,997.21
2018-10-16T05:44:56.362Z,997.23
2018-10-16T05:45:56.402Z,997.26
2018-10-16T05:46:56.439Z,997.25
2018-10-16T05:47:56.481Z,997.27
2018-10-16T05:48:56.551Z,997.25
2018-10-16T05:49:56.554Z,997.32
2018-10-16T05:50:56.590Z,997.31
2018-10-16T05:51:56.636Z,997.28
2018-10-16T05:52:56.670Z,997.35
2018-10-16T05:53:56.708Z,997.32
2018-10-16T05:54:56.745Z,997.34
2018-10-16T05:55:56.784Z,997.33
2018-10-16T05:56:56.823Z,997.34
2018-10-16T05:57:56.863Z,997.35
2018-10-16T05:58:56.899Z,997.31
2018-10-16T05:59:56.939Z,997.33
2018-10-16T06:00:56.980Z,997.32
2018-10-16T06:01:57.017Z,997.34
2018-10-16T06:02:57.056Z,997.30
2018-10-16T06:03:57.092Z,997.30
2018-10-16T06:04:57.130Z,997.29
2018-10-16T06:05:57.168Z,997.27
2018-10-16T06:06:57.208Z,997.33
2018-10-16T06:07:57.345Z,997.34
2018-10-16T06:08:57.283Z,997.35
2018-10-16T06:09:57.322Z,997.36
2018-10-16T06:10:57.483Z,997.39
2018-10-16T06:11:57.398Z,997.37
2018-10-16T06:12:57.438Z,997.41
2018-10-16T06:13:57.476Z,997.43
2018-10-16T06:14:57.514Z,997.40
2018-10-16T06:15:57.586Z,997.45
2018-10-16T06:16:57.593Z,997.45
2018-10-16T06:17:57.638Z,997.41
2018-10-16T06:18:57.669Z,997.44
2018-10-16T06:19:57.708Z,997.50
2018-10-16T06:20:57.748Z,997.44
2018-10-16T06:21:57.784Z,997.46
2018-10-16T06:22:57.824Z,997.46
2018-10-16T06:23:57.863Z,997.52
2018-10-16T06:24:57.901Z,997.47
2018-10-16T06:25:57.940Z,997.54
2018-10-16T06:26:57.977Z,997.51
2018-10-16T06:27:58.017Z,997.55
2018-10-16T06:28:58.059Z,997.54
2018-10-16T06:29:58.094Z,997.61
2018-10-16T06:30:58.132Z,997.63
2018-10-16T06:31:58.229Z,997.65
2018-10-16T06:32:58.209Z,997.68
2018-10-16T06:33:58.248Z,997.73
2018-10-16T06:34:58.288Z,997.66
2018-10-16T06:35:58.330Z,997.67
2018-10-16T06:36:58.367Z,997.68
2018-10-16T06:37:58.410Z,997.70
2018-10-16T06:38:58.494Z,997.70
2018-10-16T06:39:58.484Z,997.73
2018-10-16T06:40:58.757Z,997.75
2018-10-16T06:41:58.560Z,997.76
2018-10-16T06:42:58.612Z,997.76
2018-10-16T06:43:58.674Z,997.79
2018-10-16T06:44:58.683Z,997.79
2018-10-16T06:45:58.723Z,997.81
2018-10-16T06:46:58.769Z,997.79
2018-10-16T06:47:58.930Z,997.80
2018-10-16T06:48:59.020Z,997.81
2018-10-16T06:49:58.873Z,997.80
2018-10-16T06:50:58.917Z,997.83
2018-10-16T06:51:58.953Z,997.84
2018-10-16T06:52:58.992Z,997.80
2018-10-16T06:53:59.040Z,997.78
2018-10-16T06:54:59.106Z,997.82
2018-10-16T06:55:59.110Z,997.78
2018-10-16T06:56:59.149Z,997.80
2018-10-16T06:57:59.189Z,997.78
2018-10-16T06:58:59.227Z,997.76
2018-10-16T06:59:59.313Z,997.82
2018-10-16T07:00:59.310Z,997.81
2018-10-16T07:01:59.344Z,997.83
2018-10-16T07:02:59.384Z,997.79
2018-10-16T07:03:59.422Z,997.80
2018-10-16T07:04:59.462Z,997.79
2018-10-16T07:05:59.500Z,997.78
2018-10-16T07:06:59.698Z,997.82
2018-10-16T07:07:59.581Z,997.84
2018-10-16T07:08:59.620Z,997.81
2018-10-16T07:09:59.660Z,997.83
2018-10-16T07:10:59.713Z,997.85
2018-10-16T07:11:59.738Z,997.88
2018-10-16T07:12:59.781Z,997.88
2018-10-16T07:13:59.818Z,997.89
2018-10-16T07:14:59.954Z,997.87
2018-10-16T07:15:59.898Z,997.87
2018-10-16T07:16:59.952Z,997.86
2018-10-16T07:17:59.980Z,997.87
2018-10-16T07:19:00.017Z,997.90
2018-10-16T07:20:00.056Z,997.92
2018-10-16T07:21:00.133Z,997.96
2018-10-16T07:22:00.135Z,997.92
2018-10-16T07:23:00.190Z,997.94
2018-10-16T07:24:00.275Z,997.90
2018-10-16T07:25:00.257Z,997.90
2018-10-16T07:26:00.302Z,997.89
2018-10-16T07:27:00.335Z,997.90
2018-10-16T07:28:00.384Z,997.89
2018-10-16T07:29:00.437Z,997.94
2018-10-16T07:30:00.483Z,997.93
2018-10-16T07:31:00.519Z,997.95
2018-10-16T07:32:00.533Z,997.94
2018-10-16T07:33:00.576Z,997.94
2018-10-16T07:34:00.615Z,998.00
2018-10-16T07:35:00.652Z,997.97
2018-10-16T07:36:00.713Z,997.96
2018-10-16T07:37:00.735Z,998.00
2018-10-16T07:38:00.968Z,997.93
2018-10-16T07:39:00.988Z,997.94
2018-10-16T07:40:00.856Z,997.96
2018-10-16T07:41:00.900Z,997.98
2018-10-16T07:42:00.933Z,997.97
2018-10-16T07:43:00.978Z,998.00
2018-10-16T07:44:01.013Z,997.99
2018-10-16T07:45:01.062Z,997.95
2018-10-16T07:46:01.100Z,997.98
2018-10-16T07:47:01.137Z,997.95
2018-10-16T07:48:01.182Z,998.01
2018-10-16T07:49:01.213Z,997.96
2018-10-16T07:50:01.253Z,997.96
2018-10-16T07:51:01.299Z,997.95
2018-10-16T07:52:01.339Z,997.97
2018-10-16T07:53:01.376Z,997.97
2018-10-16T07:54:01.416Z,998.00
2018-10-16T07:55:01.455Z,998.04
2018-10-16T07:56:01.499Z,998.06
2018-10-16T07:57:01.555Z,998.09
2018-10-16T07:58:01.576Z,998.08
2018-10-16T07:59:01.623Z,998.05
2018-10-16T08:00:01.655Z,998.08
2018-10-16T08:01:01.696Z,998.10
2018-10-16T08:02:01.734Z,998.10
2018-10-16T08:03:01.779Z,998.12
2018-10-16T08:04:01.814Z,998.10
2018-10-16T08:05:01.861Z,998.13
2018-10-16T08:06:01.896Z,998.09
2018-10-16T08:07:01.961Z,998.14
2018-10-16T08:08:01.987Z,998.14
2018-10-16T08:09:02.023Z,998.14
2018-10-16T08:10:02.064Z,998.11
2018-10-16T08:11:02.096Z,998.10
2018-10-16T08:12:02.139Z,998.13
2018-10-16T08:13:02.235Z,998.12
2018-10-16T08:14:02.221Z,998.12
2018-10-16T08:15:02.264Z,998.12
2018-10-16T08:16:02.301Z,998.12
2018-10-16T08:17:02.419Z,998.15
2018-10-16T08:18:02.379Z,998.15
2018-10-16T08:19:02.426Z,998.17
2018-10-16T08:20:02.474Z,998.14
2018-10-16T08:21:02.509Z,998.19
2018-10-16T08:22:02.543Z,998.18
2018-10-16T08:23:02.584Z,998.14
2018-10-16T08:24:02.625Z,998.15
2018-10-16T08:25:02.668Z,998.19
2018-10-16T08:26:02.707Z,998.16
2018-10-16T08:27:02.747Z,998.17
2018-10-16T08:28:02.789Z,998.17
2018-10-16T08:29:02.829Z,998.12
2018-10-16T08:30:02.942Z,998.17
2018-10-16T08:31:02.918Z,998.14
2018-10-16T08:32:02.955Z,998.13
2018-10-16T08:33:02.993Z,998.15
2018-10-16T08:34:03.073Z,998.17
2018-10-16T08:35:03.079Z,998.17
2018-10-16T08:36:03.209Z,998.16
2018-10-16T08:37:03.162Z,998.16
2018-10-16T08:38:03.200Z,998.20
2018-10-16T08:39:03.260Z,998.23
2018-10-16T08:40:03.391Z,998.20
2018-10-16T08:41:03.323Z,998.21
2018-10-16T08:42:03.528Z,998.23
2018-10-16T08:43:03.403Z,998.19
2018-10-16T08:44:03.444Z,998.21
2018-10-16T08:45:03.518Z,998.17
2018-10-16T08:46:03.527Z,998.17
2018-10-16T08:47:03.569Z,998.21
2018-10-16T08:48:03.612Z,998.18
2018-10-16T08:49:03.658Z,998.20
2018-10-16T08:50:03.692Z,998.21
2018-10-16T08:51:03.734Z,998.18
2018-10-16T08:52:03.785Z,998.25
2018-10-16T08:53:03.817Z,998.21
2018-10-16T08:54:03.866Z,998.25
2018-10-16T08:55:03.989Z,998.22
2018-10-16T08:56:03.944Z,998.17
2018-10-16T08:57:03.984Z,998.19
2018-10-16T08:58:04.025Z,998.17
2018-10-16T08:59:04.067Z,998.17
2018-10-16T09:00:04.109Z,998.17
2018-10-16T09:01:04.163Z,998.17
2018-10-16T09:02:04.193Z,998.14
2018-10-16T09:03:04.231Z,998.12
2018-10-16T09:04:04.470Z,998.13
2018-10-16T09:05:04.314Z,998.13
2018-10-16T09:06:04.358Z,998.13
2018-10-16T09:07:04.403Z,998.06
2018-10-16T09:08:04.438Z,998.06
2018-10-16T09:09:04.490Z,998.11
2018-10-16T09:10:04.529Z,998.08
2018-10-16T09:11:04.564Z,998.06
2018-10-16T09:12:04.604Z,998.07
2018-10-16T09:13:04.679Z,998.09
2018-10-16T09:14:04.749Z,998.12
2018-10-16T09:15:04.729Z,998.12
2018-10-16T09:16:04.774Z,998.14
2018-10-16T09:17:04.817Z,998.16
2018-10-16T09:18:04.855Z,998.15
2018-10-16T09:19:04.898Z,998.11
2018-10-16T09:20:04.941Z,998.12
2018-10-16T09:21:04.980Z,998.12
2018-10-16T09:22:05.022Z,998.11
2018-10-16T09:23:05.064Z,998.13
2018-10-16T09:24:05.105Z,998.12
2018-10-16T09:25:05.204Z,998.12
2018-10-16T09:26:05.190Z,998.15
2018-10-16T09:27:05.231Z,998.16
2018-10-16T09:28:05.278Z,998.13
2018-10-16T09:29:05.318Z,998.15
2018-10-16T09:30:05.412Z,998.18
2018-10-16T09:31:05.492Z,998.19
2018-10-16T09:32:05.438Z,998.19
2018-10-16T09:33:05.480Z,998.24
2018-10-16T09:34:05.531Z,998.26
2018-10-16T09:35:05.562Z,998.22
2018-10-16T09:36:05.625Z,998.24
2018-10-16T09:37:05.651Z,998.25
2018-10-16T09:38:05.806Z,998.26
2018-10-16T09:39:05.731Z,998.24
2018-10-16T09:40:05.777Z,998.25
2018-10-16T09:41:05.835Z,998.25
2018-10-16T09:42:05.856Z,998.23
2018-10-16T09:43:05.894Z,998.21
2018-10-16T09:44:05.939Z,998.23
2018-10-16T09:45:05.981Z,998.24
2018-10-16T09:46:06.021Z,998.23
2018-10-16T09:47:06.079Z,998.23
2018-10-16T09:48:06.106Z,998.24
2018-10-16T09:49:06.154Z,998.27
2018-10-16T09:50:06.406Z,998.31
2018-10-16T09:51:06.277Z,998.30
2018-10-16T09:52:06.274Z,998.32
2018-10-16T09:53:06.315Z,998.26
2018-10-16T09:54:06.355Z,998.20
2018-10-16T09:55:06.400Z,998.22
2018-10-16T09:56:06.449Z,998.20
2018-10-16T09:57:06.484Z,998.22
2018-10-16T09:58:06.519Z,998.21
2018-10-16T09:59:06.565Z,998.23
2018-10-16T10:00:06.607Z,998.18
2018-10-16T10:01:06.649Z,998.17
2018-10-16T10:02:06.690Z,998.19
2018-10-16T10:03:06.732Z,998.15
2018-10-16T10:04:06.776Z,998.20
2018-10-16T10:05:06.817Z,998.21
2018-10-16T10:06:06.858Z,998.20
2018-10-16T10:07:06.900Z,998.19
2018-10-16T10:08:06.942Z,998.20
2018-10-16T10:09:06.985Z,998.17
2018-10-16T10:10:07.026Z,998.22
2018-10-16T10:11:07.164Z,998.21
2018-10-16T10:12:07.120Z,998.15
2018-10-16T10:13:07.152Z,998.20
2018-10-16T10:14:07.201Z,998.27
2018-10-16T10:15:07.236Z,998.29
2018-10-16T10:16:07.279Z,998.32
2018-10-16T10:17:07.322Z,998.29
2018-10-16T10:18:07.363Z,998.37
2018-10-16T10:19:07.406Z,998.36
2018-10-16T10:20:07.459Z,998.37
2018-10-16T10:21:07.490Z,998.41
2018-10-16T10:22:07.534Z,998.43
2018-10-16T10:23:07.602Z,998.42
2018-10-16T10:24:07.619Z,998.43
2018-10-16T10:25:07.715Z,998.44
2018-10-16T10:26:07.704Z,998.40
2018-10-16T10:27:07.746Z,998.40
2018-10-16T10:28:07.801Z,998.40
2018-10-16T10:29:07.829Z,998.36
2018-10-16T10:30:07.889Z,998.30
2018-10-16T10:31:07.916Z,998.30
2018-10-16T10:32:07.965Z,998.26
2018-10-16T10:33:08.000Z,998.19
2018-10-16T10:34:08.040Z,998.18
2018-10-16T10:35:08.143Z,998.17
2018-10-16T10:36:08.127Z,998.12
2018-10-16T10:37:08.171Z,998.16
2018-10-16T10:38:08.216Z,998.18
2018-10-16T10:39:08.269Z,998.20
2018-10-16T10:40:08.298Z,998.18
2018-10-16T10:41:08.342Z,998.23
2018-10-16T10:42:08.452Z,998.29
2018-10-16T10:43:08.425Z,998.30
2018-10-16T10:44:08.470Z,998.33
2018-10-16T10:45:08.514Z,998.26
2018-10-16T10:46:08.553Z,998.25
2018-10-16T10:47:08.607Z,998.22
2018-10-16T10:48:08.639Z,998.17
2018-10-16T10:49:08.687Z,998.15
2018-10-16T10:50:08.909Z,998.08
2018-10-16T10:51:09.126Z,998.07
2018-10-16T10:52:08.812Z,998.07
2018-10-16T10:53:08.859Z,998.09
2018-10-16T10:54:08.898Z,998.08
2018-10-16T10:55:08.942Z,998.14
2018-10-16T10:56:08.986Z,998.13
2018-10-16T10:57:09.282Z,998.13
2018-10-16T10:58:09.071Z,998.15
2018-10-16T10:59:09.113Z,998.17
2018-10-16T11:00:09.158Z,998.16
2018-10-16T11:01:09.199Z,998.19
2018-10-16T11:02:09.250Z,998.21
2018-10-16T11:03:09.303Z,998.17
2018-10-16T11:04:09.328Z,998.20
2018-10-16T11:05:09.372Z,998.18
2018-10-16T11:06:09.423Z,998.23
2018-10-16T11:07:09.463Z,998.19
2018-10-16T11:08:09.609Z,998.23
2018-10-16T11:09:09.677Z,998.19
2018-10-16T11:10:09.588Z,998.22
2018-10-16T11:11:09.634Z,998.21
2018-10-16T11:12:09.676Z,998.18
2018-10-16T11:13:09.719Z,998.20
2018-10-16T11:14:09.761Z,998.18
2018-10-16T11:15:09.916Z,998.23
2018-10-16T11:16:09.851Z,998.22
2018-10-16T11:17:09.893Z,998.19
2018-10-16T11:18:09.939Z,998.22
2018-10-16T11:19:09.986Z,998.21
2018-10-16T11:20:10.024Z,998.24
2018-10-16T11:21:10.139Z,998.22
2018-10-16T11:22:10.109Z,998.22
2018-10-16T11:23:10.161Z,998.20
2018-10-16T11:24:10.195Z,998.17
2018-10-16T11:25:10.244Z,998.19
2018-10-16T11:26:10.283Z,998.20
2018-10-16T11:27:10.377Z,998.18
2018-10-16T11:28:10.371Z,998.22
2018-10-16T11:29:10.414Z,998.21
2018-10-16T11:30:10.547Z,998.26
2018-10-16T11:31:10.580Z,998.26
2018-10-16T11:32:10.548Z,998.24
2018-10-16T11:33:10.659Z,998.28
2018-10-16T11:34:10.633Z,998.30
2018-10-16T11:35:10.677Z,998.30
2018-10-16T11:36:10.726Z,998.27
2018-10-16T11:37:10.879Z,998.34
2018-10-16T11:38:10.810Z,998.29
2018-10-16T11:39:10.881Z,998.29
2018-10-16T11:40:10.900Z,998.26
2018-10-16T11:41:10.941Z,998.25
2018-10-16T11:42:10.983Z,998.25
2018-10-16T11:43:11.032Z,998.25
2018-10-16T11:44:11.073Z,998.23
2018-10-16T11:45:11.131Z,998.26
2018-10-16T11:46:11.159Z,998.28
2018-10-16T11:47:11.213Z,998.29
2018-10-16T11:48:11.304Z,998.30
2018-10-16T11:49:11.290Z,998.25
2018-10-16T11:50:11.395Z,998.26
2018-10-16T11:51:11.378Z,998.28
2018-10-16T11:52:11.438Z,998.25
2018-10-16T11:53:11.465Z,998.23
2018-10-16T11:54:11.511Z,998.22
2018-10-16T11:55:11.560Z,998.22
2018-10-16T11:56:11.659Z,998.18
2018-10-16T11:57:11.643Z,998.15
2018-10-16T11:58:11.693Z,998.14
2018-10-16T11:59:11.823Z,998.15
2018-10-16T12:00:11.775Z,998.12
2018-10-16T12:01:11.818Z,998.17
2018-10-16T12:02:11.916Z,998.13
2018-10-16T12:03:11.907Z,998.15
2018-10-16T12:04:11.950Z,998.13
2018-10-16T12:05:11.994Z,998.10
2018-10-16T12:06:12.131Z,998.11
2018-10-16T12:07:12.176Z,998.14
2018-10-16T12:08:12.212Z,998.17
2018-10-16T12:09:12.177Z,998.17
2018-10-16T12:10:12.389Z,998.15
2018-10-16T12:11:12.377Z,998.16
2018-10-16T12:12:12.304Z,998.11
2018-10-16T12:13:12.416Z,998.13
2018-10-16T12:14:12.433Z,998.14
2018-10-16T12:15:12.435Z,998.14
2018-10-16T12:16:12.481Z,998.14
2018-10-16T12:17:12.520Z,998.12
2018-10-16T12:18:12.564Z,998.16
2018-10-16T12:19:12.680Z,998.11
2018-10-16T12:20:12.665Z,998.13
2018-10-16T12:21:12.719Z,998.11
2018-10-16T12:22:12.757Z,998.13
2018-10-16T12:23:12.790Z,998.13
2018-10-16T12:24:12.892Z,998.12
2018-10-16T12:25:13.022Z,998.10
2018-10-16T12:26:12.919Z,998.10
2018-10-16T12:27:13.063Z,998.10
2018-10-16T12:28:13.012Z,998.09
2018-10-16T12:29:13.063Z,998.09